Time;durP1;ratioP1;P1;durP2;ratioP2;P2;SDS_P1;SDS_P2;PMS_P1;PMS_P2;Temp;Humidity;BMP_temperature;BMP_pressure;BME280_temperature;BME280_humidity;BME280_pressure;Samples;Min_cycle;Max_cycle;Signal;HPM_P1;HPM_P2
2022/09/16 00:00:18;;;;;;;8.90;5.22;;;;;;;17.00;100.00;99108.34;6307088;22;20015;-89
2022/09/16 00:02:43;;;;;;;6.80;4.28;;;;;;;17.03;100.00;99112.16;6334957;22;20011;-88
2022/09/16 00:05:09;;;;;;;7.38;4.07;;;;;;;17.04;100.00;99116.50;6335379;22;20038;-89
2022/09/16 00:07:35;;;;;;;7.53;4.40;;;;;;;16.98;100.00;99110.13;6335110;22;20014;-88
2022/09/16 00:10:01;;;;;;;6.88;4.80;;;;;;;16.96;100.00;99112.66;6308036;22;20010;-87
2022/09/16 00:12:26;;;;;;;7.53;3.97;;;;;;;17.03;100.00;99104.53;6308098;22;20010;-89
2022/09/16 00:14:53;;;;;;;5.63;4.43;;;;;;;17.00;100.00;99125.16;6323112;22;20022;-88
2022/09/16 00:17:19;;;;;;;8.10;4.68;;;;;;;17.00;100.00;99124.38;6307347;22;20428;-88
2022/09/16 00:19:44;;;;;;;5.50;3.97;;;;;;;17.04;100.00;99127.72;6309267;22;20011;-88
2022/09/16 00:22:10;;;;;;;5.15;4.45;;;;;;;17.08;100.00;99117.81;6307884;22;20014;-88
2022/09/16 00:24:35;;;;;;;6.70;4.63;;;;;;;17.09;100.00;99124.19;6338831;22;20014;-88
2022/09/16 00:27:01;;;;;;;5.25;4.20;;;;;;;17.13;100.00;99121.91;6316714;22;20428;-87
2022/09/16 00:29:26;;;;;;;10.85;4.85;;;;;;;17.13;100.00;99121.91;6343698;22;20006;-88
2022/09/16 00:31:52;;;;;;;6.82;4.18;;;;;;;17.14;100.00;99124.22;6335932;22;20096;-88
2022/09/16 00:34:18;;;;;;;8.18;4.10;;;;;;;17.15;100.00;99131.31;6307612;22;20052;-88
2022/09/16 00:36:43;;;;;;;9.80;4.70;;;;;;;17.23;100.00;99132.38;6307585;22;20077;-88
2022/09/16 00:39:09;;;;;;;10.30;4.95;;;;;;;17.24;100.00;99124.72;6307840;22;20007;-88
2022/09/16 00:41:35;;;;;;;5.45;4.60;;;;;;;17.22;100.00;99130.88;6334655;22;20038;-88
2022/09/16 00:44:04;;;;;;;8.20;4.88;;;;;;;17.26;100.00;99133.41;6336033;22;20064;-88
2022/09/16 00:46:35;;;;;;;4.90;4.28;;;;;;;17.29;100.00;99140.81;6309312;22;20029;-88
2022/09/16 00:49:05;;;;;;;7.05;4.72;;;;;;;17.26;100.00;99144.63;6336599;22;20046;-88
2022/09/16 00:51:31;;;;;;;6.93;4.50;;;;;;;17.20;100.00;99133.38;6310431;22;20368;-88
2022/09/16 00:54:01;;;;;;;5.15;4.28;;;;;;;17.21;100.00;99123.72;6337891;22;20007;-88
2022/09/16 00:56:28;;;;;;;6.60;4.90;;;;;;;17.16;100.00;99130.06;6337712;22;20015;-87
2022/09/16 00:59:07;;;;;;;4.65;4.13;;;;;;;17.19;100.00;99140.25;6337800;22;20006;-88
2022/09/16 01:01:33;;;;;;;7.00;4.40;;;;;;;17.23;100.00;99154.03;6308550;22;20441;-88
2022/09/16 01:04:03;;;;;;;6.95;4.80;;;;;;;17.23;100.00;99142.81;6336818;22;20011;-87
2022/09/16 01:06:29;;;;;;;6.05;4.50;;;;;;;17.23;100.00;99142.81;6308782;22;20382;-87
2022/09/16 01:08:56;;;;;;;7.80;4.70;;;;;;;17.19;100.00;99134.66;6309427;22;20017;-88
2022/09/16 01:11:23;;;;;;;9.23;4.50;;;;;;;17.24;100.00;99144.34;6337975;22;20399;-87
2022/09/16 01:13:48;;;;;;;9.27;4.78;;;;;;;17.20;100.00;99144.59;6340961;22;20429;-88
2022/09/16 01:16:28;;;;;;;7.45;4.43;;;;;;;17.19;100.00;99136.69;6309926;22;20018;-88
2022/09/16 01:19:08;;;;;;;10.32;4.75;;;;;;;17.19;100.00;99154.28;6310222;22;20018;-87
2022/09/16 01:21:39;;;;;;;7.88;4.53;;;;;;;17.14;100.00;99143.81;6310359;22;20042;-88
2022/09/16 01:24:22;;;;;;;7.00;4.43;;;;;;;17.16;100.00;99134.91;6309858;22;20006;-88
2022/09/16 01:27:17;;;;;;;8.02;3.70;;;;;;;17.17;100.00;99128.03;6310589;22;20011;-88
2022/09/16 01:29:58;;;;;;;5.78;3.78;;;;;;;17.12;100.00;99132.34;6311089;22;20011;-87
2022/09/16 01:32:42;;;;;;;6.60;3.38;;;;;;;17.17;100.00;99128.03;6337133;22;20447;-89
2022/09/16 01:35:39;;;;;;;6.28;3.42;;;;;;;17.17;100.00;99133.63;6337013;22;20015;-88
2022/09/16 01:38:24;;;;;;;4.57;3.50;;;;;;;17.09;100.00;99132.59;6251858;22;20022;-88
2022/09/16 01:41:35;;;;;;;5.65;3.75;;;;;;;17.06;100.00;99136.41;6337214;22;20015;-88
2022/09/16 01:44:08;;;;;;;4.45;3.83;;;;;;;17.08;100.00;99119.84;6321314;22;20023;-87
2022/09/16 01:46:43;;;;;;;5.50;3.67;;;;;;;17.09;100.00;99129.78;6309676;22;20015;-87
2022/09/16 01:49:20;;;;;;;6.70;3.70;;;;;;;17.12;100.00;99120.34;6337051;22;20449;-88
2022/09/16 01:52:17;;;;;;;6.65;3.80;;;;;;;17.13;100.00;99127.50;6309936;22;20011;-88
2022/09/16 01:54:58;;;;;;;4.18;3.22;;;;;;;17.15;100.00;99133.34;6309665;22;20048;-88
2022/09/16 01:57:40;;;;;;;6.00;3.13;;;;;;;17.09;100.00;99138.19;6308608;22;20018;-89
2022/09/16 02:00:10;;;;;;;6.15;2.92;;;;;;;16.99;100.00;99134.06;6309652;22;20504;-88
2022/09/16 02:02:47;;;;;;;4.00;2.80;;;;;;;16.88;100.00;99140.38;6336725;22;20073;-88
2022/09/16 02:05:25;;;;;;;5.78;2.88;;;;;;;16.81;100.00;99134.50;6309625;22;20015;-88
2022/09/16 02:07:55;;;;;;;5.13;2.70;;;;;;;16.77;100.00;99143.91;6309522;22;20030;-87
2022/09/16 02:10:26;;;;;;;4.13;2.75;;;;;;;16.72;100.00;99141.06;6336975;22;20049;-85
2022/09/16 02:12:54;;;;;;;7.53;3.20;;;;;;;16.64;100.00;99140.00;6296879;22;20011;-87
2022/09/16 02:15:22;;;;;;;5.03;3.45;;;;;;;16.57;100.00;99146.84;6309928;22;20429;-87
2022/09/16 02:17:54;;;;;;;4.93;3.25;;;;;;;16.47;100.00;99139.84;6313128;22;20003;-87
2022/09/16 02:20:24;;;;;;;4.40;3.10;;;;;;;16.48;100.00;99152.59;6311235;22;20081;-88
2022/09/16 02:22:55;;;;;;;5.00;3.42;;;;;;;16.36;100.00;99134.19;6336423;22;20142;-87
2022/09/16 02:25:20;;;;;;;5.40;3.33;;;;;;;16.38;100.00;99154.03;6308369;22;20007;-87
2022/09/16 02:27:48;;;;;;;4.32;3.10;;;;;;;16.37;100.00;99158.13;6309085;22;20337;-88
2022/09/16 02:30:16;;;;;;;5.40;3.20;;;;;;;16.37;100.00;99148.94;6308108;22;20013;-88
2022/09/16 02:32:47;;;;;;;5.63;3.33;;;;;;;16.32;100.00;99150.44;6282667;22;20022;-85
2022/09/16 02:35:16;;;;;;;7.45;3.80;;;;;;;16.19;100.00;99144.47;6336674;22;20039;-87
2022/09/16 02:37:46;;;;;;;4.53;3.75;;;;;;;16.21;100.00;99159.53;6282180;22;20506;-86
2022/09/16 02:40:17;;;;;;;4.60;3.53;;;;;;;16.12;100.00;99147.72;6308511;22;20007;-87
2022/09/16 02:42:42;;;;;;;5.45;3.78;;;;;;;16.13;100.00;99160.47;6308500;22;20017;-86
2022/09/16 02:45:08;;;;;;;6.55;3.75;;;;;;;16.05;100.00;99153.78;6282386;22;20333;-78
2022/09/16 02:47:43;;;;;;;4.40;3.75;;;;;;;16.08;100.00;99170.34;6335921;22;20003;-78
2022/09/16 02:50:27;;;;;;;6.15;3.70;;;;;;;16.05;100.00;99176.16;6335946;22;20030;-78
2022/09/16 02:52:57;;;;;;;7.05;4.20;;;;;;;16.04;100.00;99177.41;6293385;22;20457;-77
2022/09/16 02:55:47;;;;;;;3.90;3.45;;;;;;;16.05;100.00;99170.56;6335163;22;20014;-77
2022/09/16 02:58:13;;;;;;;5.13;3.78;;;;;;;15.97;100.00;99175.06;6307991;22;20019;-77
2022/09/16 03:00:42;;;;;;;6.20;3.80;;;;;;;16.05;100.00;99198.53;6307818;22;20067;-77
2022/09/16 03:03:07;;;;;;;6.85;3.47;;;;;;;16.01;100.00;99195.19;6334230;22;20015;-77
2022/09/16 03:05:33;;;;;;;4.68;3.80;;;;;;;16.06;100.00;99200.06;6281755;22;20014;-77
2022/09/16 03:08:01;;;;;;;5.38;3.53;;;;;;;16.09;100.00;99199.88;6307636;22;20102;-78
2022/09/16 03:10:35;;;;;;;6.35;3.70;;;;;;;16.07;100.00;99199.56;6308730;22;20032;-77
2022/09/16 03:13:26;;;;;;;5.55;3.38;;;;;;;16.07;100.00;99199.56;6307403;22;20014;-77
2022/09/16 03:16:16;;;;;;;3.97;3.50;;;;;;;16.07;100.00;99202.38;6307957;22;20019;-79
2022/09/16 03:18:48;;;;;;;5.65;3.63;;;;;;;16.02;100.00;99193.91;6307547;22;20007;-79
2022/09/16 03:21:22;;;;;;;5.07;3.70;;;;;;;16.07;100.00;99202.38;6336148;22;20011;-80
2022/09/16 03:24:07;;;;;;;5.43;3.33;;;;;;;16.03;100.00;99207.41;6308325;22;20015;-79
2022/09/16 03:26:36;;;;;;;4.70;3.92;;;;;;;15.98;100.00;99210.16;6336081;22;20367;-79
2022/09/16 03:29:16;;;;;;;5.88;3.60;;;;;;;16.02;100.00;99205.88;6335563;22;20068;-79
2022/09/16 03:32:06;;;;;;;5.47;3.70;;;;;;;16.06;100.00;99211.25;6308670;22;20021;-79
2022/09/16 03:34:39;;;;;;;6.75;4.00;;;;;;;16.08;100.00;99212.31;6335655;22;20022;-79
2022/09/16 03:37:07;;;;;;;4.10;3.70;;;;;;;16.06;100.00;99205.66;6308421;22;20489;-78
2022/09/16 03:39:33;;;;;;;5.82;3.58;;;;;;;16.04;100.00;99202.59;6307711;22;19999;-78
2022/09/16 03:42:01;;;;;;;5.00;3.65;;;;;;;16.03;100.00;99206.66;6336109;22;20014;-79
2022/09/16 03:44:34;;;;;;;4.85;4.00;;;;;;;16.03;100.00;99206.66;6308104;22;20014;-78
2022/09/16 03:46:59;;;;;;;5.15;4.00;;;;;;;15.98;100.00;99196.16;6335693;22;20006;-78
2022/09/16 03:49:24;;;;;;;5.63;4.00;;;;;;;16.01;100.00;99198.00;6335479;22;20052;-78
2022/09/16 03:51:50;;;;;;;9.18;4.57;;;;;;;15.90;100.00;99189.47;6335262;22;20571;-78
2022/09/16 03:54:16;;;;;;;5.13;3.75;;;;;;;16.01;100.00;99187.59;6307984;22;20014;-78
2022/09/16 03:56:41;;;;;;;6.45;3.80;;;;;;;15.98;100.00;99179.38;6335697;22;19998;-78
2022/09/16 03:59:07;;;;;;;8.02;3.97;;;;;;;15.95;100.00;99183.19;6335537;22;20082;-78
2022/09/16 04:01:32;;;;;;;6.30;4.07;;;;;;;15.98;100.00;99176.59;6335539;22;20007;-78
2022/09/16 04:03:57;;;;;;;5.50;4.60;;;;;;;15.94;100.00;99167.66;6335370;22;20091;-78
2022/09/16 04:06:23;;;;;;;4.80;4.10;;;;;;;15.95;100.00;99160.81;6307700;22;20010;-79
2022/09/16 04:08:50;;;;;;;7.13;4.13;;;;;;;15.88;100.00;99159.22;6335904;22;20082;-78
2022/09/16 04:11:16;;;;;;;6.47;4.45;;;;;;;15.96;100.00;99163.13;6308371;22;20022;-78
2022/09/16 04:13:42;;;;;;;6.10;4.10;;;;;;;16.03;100.00;99167.47;6335542;22;20072;-79
2022/09/16 04:16:07;;;;;;;5.63;4.15;;;;;;;15.91;100.00;99169.41;6335687;22;20018;-79
2022/09/16 04:18:33;;;;;;;7.38;4.20;;;;;;;15.95;100.00;99152.41;6336381;22;20014;-79
2022/09/16 04:21:00;;;;;;;5.35;4.28;;;;;;;15.89;100.00;99152.38;6337698;22;20383;-79
2022/09/16 04:23:27;;;;;;;5.00;4.28;;;;;;;15.89;100.00;99162.78;6309820;22;20007;-79
2022/09/16 04:25:57;;;;;;;6.35;4.38;;;;;;;15.85;100.00;99169.34;6337544;22;20433;-78
2022/09/16 04:28:22;;;;;;;6.90;4.57;;;;;;;15.80;100.00;99178.47;6309297;22;20298;-78
2022/09/16 04:30:48;;;;;;;5.97;4.65;;;;;;;15.76;100.00;99177.94;6309703;22;20060;-79
2022/09/16 04:33:13;;;;;;;5.93;4.85;;;;;;;15.86;100.00;99187.69;6336870;22;20007;-79
2022/09/16 04:35:39;;;;;;;7.63;4.55;;;;;;;15.78;100.00;99180.22;6337512;22;20014;-79
2022/09/16 04:38:04;;;;;;;5.55;4.70;;;;;;;15.80;100.00;99184.06;6307803;22;20011;-78
2022/09/16 04:40:30;;;;;;;7.53;4.88;;;;;;;15.75;100.00;99175.63;6337224;22;20302;-78
2022/09/16 04:42:55;;;;;;;8.55;4.35;;;;;;;15.72;100.00;99171.78;6337187;22;20010;-78
2022/09/16 04:45:21;;;;;;;5.80;4.38;;;;;;;15.78;100.00;99185.81;6308779;22;20007;-79
2022/09/16 04:47:47;;;;;;;5.63;4.50;;;;;;;15.80;100.00;99177.72;6309614;22;20011;-78
2022/09/16 04:50:12;;;;;;;4.90;4.40;;;;;;;15.77;100.00;99182.25;6337035;22;20010;-79
2022/09/16 04:52:38;;;;;;;5.70;4.45;;;;;;;15.76;100.00;99177.94;6337015;22;20017;-79
2022/09/16 04:55:04;;;;;;;7.90;4.32;;;;;;;15.74;100.00;99185.25;6337296;22;20011;-79
2022/09/16 04:57:31;;;;;;;7.15;4.80;;;;;;;15.78;100.00;99194.97;6309215;22;20007;-79
2022/09/16 04:59:57;;;;;;;5.47;4.57;;;;;;;15.79;100.00;99199.31;6308404;22;20097;-78
2022/09/16 05:02:23;;;;;;;6.35;4.30;;;;;;;15.76;100.00;99186.31;6336555;22;20011;-79
2022/09/16 05:04:48;;;;;;;5.75;4.70;;;;;;;15.86;100.00;99203.69;6337029;22;20015;-78
2022/09/16 05:07:14;;;;;;;5.40;4.60;;;;;;;15.89;100.00;99207.53;6337028;22;20011;-79
2022/09/16 05:09:40;;;;;;;5.47;4.40;;;;;;;15.89;100.00;99213.13;6337182;22;20433;-79
2022/09/16 05:12:06;;;;;;;6.43;4.32;;;;;;;15.93;100.00;99205.28;6336966;22;20011;-79
2022/09/16 05:14:31;;;;;;;5.53;4.60;;;;;;;16.00;100.00;99216.81;6335369;22;20328;-78
2022/09/16 05:16:57;;;;;;;6.03;4.82;;;;;;;15.91;100.00;99227.38;6336278;22;20014;-79
2022/09/16 05:19:22;;;;;;;6.72;4.40;;;;;;;15.91;100.00;99228.16;6336344;22;20011;-79
2022/09/16 05:21:48;;;;;;;5.68;4.40;;;;;;;16.00;100.00;99232.81;6336859;22;20363;-79
2022/09/16 05:24:14;;;;;;;5.60;4.18;;;;;;;15.91;100.00;99236.53;6336601;22;20038;-78
2022/09/16 05:26:43;;;;;;;6.50;4.47;;;;;;;15.88;100.00;99231.16;6308998;22;20011;-78
2022/09/16 05:29:14;;;;;;;6.35;4.60;;;;;;;15.88;100.00;99223.53;6335085;22;20065;-79
2022/09/16 05:31:41;;;;;;;8.93;4.30;;;;;;;15.88;100.00;99217.97;6336697;22;20006;-78
2022/09/16 05:34:18;;;;;;;5.53;4.05;;;;;;;15.82;100.00;99209.50;6337614;22;20064;-78
2022/09/16 05:36:46;;;;;;;6.05;4.07;;;;;;;15.85;100.00;99219.69;6337412;22;20098;-78
2022/09/16 05:39:12;;;;;;;6.13;4.50;;;;;;;15.88;100.00;99228.38;6337072;22;20019;-78
2022/09/16 05:41:38;;;;;;;7.65;4.10;;;;;;;15.85;100.00;99214.09;6309382;22;20003;-78
2022/09/16 05:44:05;;;;;;;6.13;4.40;;;;;;;15.78;100.00;99197.75;6336760;22;20017;-78
2022/09/16 05:46:31;;;;;;;5.57;4.35;;;;;;;15.83;100.00;99211.03;6336874;22;20007;-79
2022/09/16 05:48:56;;;;;;;6.72;4.15;;;;;;;15.78;100.00;99191.41;6337121;22;20060;-78
2022/09/16 05:51:23;;;;;;;6.10;3.83;;;;;;;15.77;100.00;99201.06;6283549;22;20429;-78
2022/09/16 05:53:49;;;;;;;5.30;4.18;;;;;;;15.77;100.00;99207.41;6309379;22;20042;-78
2022/09/16 05:56:17;;;;;;;6.18;4.43;;;;;;;15.82;100.00;99209.50;6309637;22;20015;-78
2022/09/16 05:58:43;;;;;;;7.10;4.22;;;;;;;15.83;100.00;99221.47;6336503;22;20017;-77
2022/09/16 06:01:12;;;;;;;5.82;3.90;;;;;;;15.84;100.00;99223.78;6283914;22;20030;-79
2022/09/16 06:03:40;;;;;;;5.88;4.00;;;;;;;15.78;100.00;99220.13;6306787;22;20042;-79
2022/09/16 06:06:10;;;;;;;5.10;4.10;;;;;;;15.81;100.00;99224.72;6308232;22;20030;-79
2022/09/16 06:08:36;;;;;;;5.22;4.00;;;;;;;15.79;100.00;99216.09;6308672;22;20039;-79
2022/09/16 06:11:03;;;;;;;7.07;4.47;;;;;;;15.81;100.00;99213.53;6336975;22;20007;-79
2022/09/16 06:13:29;;;;;;;5.90;3.97;;;;;;;15.79;100.00;99209.72;6308800;22;20463;-79
2022/09/16 06:15:54;;;;;;;7.00;4.20;;;;;;;15.82;100.00;99217.88;6336671;22;20022;-80
2022/09/16 06:18:21;;;;;;;5.20;4.10;;;;;;;15.88;100.00;99219.97;6336823;22;20163;-79
2022/09/16 06:20:47;;;;;;;6.00;4.40;;;;;;;15.90;100.00;99220.25;6309358;22;20125;-79
2022/09/16 06:23:13;;;;;;;5.55;4.07;;;;;;;15.92;100.00;99212.91;6336345;22;20042;-80
2022/09/16 06:25:39;;;;;;;6.82;4.07;;;;;;;15.89;100.00;99201.94;6308724;22;20011;-79
2022/09/16 06:28:04;;;;;;;4.47;3.72;;;;;;;15.90;100.00;99207.03;6336405;22;20015;-79
2022/09/16 06:30:30;;;;;;;6.30;3.97;;;;;;;15.94;100.00;99204.00;6308667;22;20003;-79
2022/09/16 06:32:55;;;;;;;8.13;4.35;;;;;;;15.93;100.00;99202.50;6336434;22;20380;-79
2022/09/16 06:35:21;;;;;;;7.00;3.83;;;;;;;15.93;100.00;99196.91;6308825;22;20440;-79
2022/09/16 06:37:46;;;;;;;4.50;3.60;;;;;;;15.92;100.00;99206.53;6282869;22;20040;-79
2022/09/16 06:40:12;;;;;;;5.13;3.83;;;;;;;15.94;100.00;99209.59;6336878;22;20332;-79
2022/09/16 06:42:38;;;;;;;6.35;4.00;;;;;;;16.01;100.00;99203.59;6308333;22;20439;-79
2022/09/16 06:45:04;;;;;;;5.57;3.88;;;;;;;16.01;100.00;99203.59;6336266;22;20056;-79
2022/09/16 06:47:33;;;;;;;5.72;3.70;;;;;;;16.00;100.00;99191.63;6336108;22;20007;-79
2022/09/16 06:49:59;;;;;;;6.35;4.20;;;;;;;16.12;100.00;99214.88;6309325;22;20029;-79
2022/09/16 06:52:25;;;;;;;7.05;3.53;;;;;;;16.08;100.00;99214.34;6308338;22;20068;-79
2022/09/16 06:54:53;;;;;;;6.00;3.35;;;;;;;16.08;100.00;99211.53;6335957;22;20046;-78
2022/09/16 06:57:21;;;;;;;7.43;3.58;;;;;;;16.13;100.00;99227.63;6336718;22;20069;-77
2022/09/16 06:59:48;;;;;;;4.47;3.40;;;;;;;16.02;100.00;99224.69;6335964;22;20010;-79
2022/09/16 07:02:13;;;;;;;4.90;3.30;;;;;;;16.07;100.00;99224.75;6336185;22;20013;-79
2022/09/16 07:04:39;;;;;;;4.95;3.22;;;;;;;16.08;100.00;99229.09;6335554;22;20007;-79
2022/09/16 07:07:05;;;;;;;5.20;3.53;;;;;;;16.16;100.00;99223.81;6336684;22;20014;-79
2022/09/16 07:09:31;;;;;;;4.60;3.83;;;;;;;16.17;100.00;99228.16;6335892;22;20463;-79
2022/09/16 07:11:59;;;;;;;5.95;3.40;;;;;;;16.15;100.00;99233.47;6282955;22;20011;-79
2022/09/16 07:14:26;;;;;;;4.50;3.40;;;;;;;16.17;100.00;99223.34;6308136;22;20044;-79
2022/09/16 07:16:52;;;;;;;5.22;3.42;;;;;;;16.22;100.00;99238.63;6323293;22;20010;-79
2022/09/16 07:19:17;;;;;;;5.78;3.30;;;;;;;16.30;100.00;99242.50;6308030;22;20010;-79
2022/09/16 07:21:43;;;;;;;5.82;3.03;;;;;;;16.29;100.00;99249.38;6335754;22;20026;-79
2022/09/16 07:24:11;;;;;;;4.68;3.08;;;;;;;16.31;100.00;99244.03;6335679;22;20037;-78
2022/09/16 07:26:38;;;;;;;8.18;3.00;;;;;;;16.29;100.00;99252.19;6308147;22;20464;-79
2022/09/16 07:29:05;;;;;;;5.07;3.00;;;;;;;16.28;99.03;99256.22;6282670;22;20030;-79
2022/09/16 07:31:33;;;;;;;4.22;2.85;;;;;;;16.30;99.40;99262.88;6335571;22;20006;-79
2022/09/16 07:34:02;;;;;;;9.43;3.28;;;;;;;16.20;100.00;99274.72;6307696;22;20015;-79
2022/09/16 07:36:32;;;;;;;3.78;2.97;;;;;;;16.15;99.66;99267.03;6335109;22;20079;-78
2022/09/16 07:38:58;;;;;;;5.40;2.95;;;;;;;16.15;98.12;99276.19;6335749;22;20011;-78
2022/09/16 07:41:26;;;;;;;7.40;3.60;;;;;;;16.24;99.25;99278.06;6307950;22;20131;-78
2022/09/16 07:43:57;;;;;;;4.35;3.40;;;;;;;16.28;99.87;99278.63;6335413;22;20448;-78
2022/09/16 07:46:24;;;;;;;4.78;3.03;;;;;;;16.30;100.00;99278.88;6308033;22;20136;-78
2022/09/16 07:48:50;;;;;;;5.55;3.50;;;;;;;16.25;100.00;99280.38;6335775;22;20107;-78
2022/09/16 07:51:21;;;;;;;4.55;3.03;;;;;;;16.32;100.00;99290.38;6335967;22;20034;-79
2022/09/16 07:53:47;;;;;;;5.65;3.10;;;;;;;16.25;100.00;99288.00;6336802;22;20345;-79
2022/09/16 07:56:16;;;;;;;4.63;3.58;;;;;;;16.25;100.00;99285.22;6310059;22;20436;-77
2022/09/16 07:58:44;;;;;;;6.50;3.80;;;;;;;16.22;100.00;99288.97;6337108;22;20007;-78
2022/09/16 08:01:10;;;;;;;8.10;3.50;;;;;;;16.27;100.00;99293.88;6310483;22;20007;-77
2022/09/16 08:03:38;;;;;;;6.57;3.97;;;;;;;16.36;100.00;99293.72;6283739;22;20007;-78
2022/09/16 08:06:06;;;;;;;5.43;3.70;;;;;;;16.37;100.00;99302.88;6337411;22;20102;-77
2022/09/16 08:08:32;;;;;;;6.00;3.42;;;;;;;16.35;100.00;99306.16;6309541;22;20074;-78
2022/09/16 08:10:59;;;;;;;4.90;3.10;;;;;;;16.18;100.00;99308.00;6310359;22;20014;-77
2022/09/16 08:13:25;;;;;;;4.50;2.90;;;;;;;16.13;100.00;99305.94;6310177;22;20172;-76
2022/09/16 08:15:52;;;;;;;4.45;3.20;;;;;;;16.11;100.00;99300.06;6337696;22;20085;-77
2022/09/16 08:18:18;;;;;;;5.10;3.50;;;;;;;16.01;100.00;99295.91;6337268;22;20140;-78
2022/09/16 08:20:43;;;;;;;4.55;3.50;;;;;;;16.08;100.00;99287.06;6337184;22;20082;-77
2022/09/16 08:23:09;;;;;;;5.63;3.65;;;;;;;16.06;100.00;99287.56;6337316;22;20132;-78
2022/09/16 08:25:35;;;;;;;5.50;4.07;;;;;;;15.99;100.00;99301.19;6284064;22;20013;-78
2022/09/16 08:28:02;;;;;;;4.68;3.88;;;;;;;15.94;100.00;99293.50;6337374;22;20631;-77
2022/09/16 08:30:27;;;;;;;6.60;3.83;;;;;;;15.97;100.00;99298.91;6283736;22;20038;-77
2022/09/16 08:32:57;;;;;;;4.72;3.55;;;;;;;15.98;100.00;99300.44;6337369;22;20018;-78
2022/09/16 08:35:23;;;;;;;5.80;3.65;;;;;;;16.02;100.00;99294.63;6309667;22;20029;-78
2022/09/16 08:37:48;;;;;;;5.50;4.07;;;;;;;16.08;100.00;99284.28;6337106;22;20010;-79
2022/09/16 08:40:15;;;;;;;4.88;3.80;;;;;;;16.12;100.00;99287.63;6334905;22;20437;-78
2022/09/16 08:42:44;;;;;;;5.65;4.15;;;;;;;16.14;100.00;99290.69;6283776;22;20007;-77
2022/09/16 08:45:34;;;;;;;4.28;3.65;;;;;;;16.18;100.00;99292.00;6336895;22;20015;-78
2022/09/16 08:48:21;;;;;;;6.75;4.03;;;;;;;16.19;100.00;99295.56;6337492;22;20019;-78
2022/09/16 08:50:48;;;;;;;7.97;4.40;;;;;;;16.22;100.00;99283.38;6337274;22;20015;-77
2022/09/16 08:53:57;;;;;;;5.82;4.15;;;;;;;16.13;100.00;99291.97;6309141;22;20040;-77
2022/09/16 08:56:26;;;;;;;6.75;4.28;;;;;;;16.04;100.00;99292.09;6293183;22;20448;-79
2022/09/16 08:58:57;;;;;;;6.75;5.45;;;;;;;16.03;100.00;99290.56;6309784;22;20006;-77
2022/09/16 09:01:41;;;;;;;7.50;4.00;;;;;;;16.01;100.00;99293.88;6337185;22;20007;-79
2022/09/16 09:04:06;;;;;;;6.80;4.32;;;;;;;15.90;100.00;99284.56;6309168;22;20007;-77
2022/09/16 09:06:53;;;;;;;8.32;4.88;;;;;;;15.88;100.00;99301.84;6336638;22;20069;-79
2022/09/16 09:09:19;;;;;;;5.97;4.10;;;;;;;15.78;100.00;99303.25;6336451;22;20148;-77
2022/09/16 09:11:56;;;;;;;6.78;4.15;;;;;;;15.71;100.00;99293.25;6336798;22;20042;-77
2022/09/16 09:14:38;;;;;;;7.50;4.63;;;;;;;15.89;100.00;99305.44;6284898;22;20011;-77
2022/09/16 09:17:13;;;;;;;6.47;4.38;;;;;;;15.96;100.00;99305.00;6337421;22;20021;-78
2022/09/16 09:19:51;;;;;;;5.57;4.47;;;;;;;16.06;100.00;99306.34;6336766;22;20018;-78
2022/09/16 09:22:38;;;;;;;6.90;4.18;;;;;;;16.08;100.00;99301.06;6257056;22;20389;-77
2022/09/16 09:25:21;;;;;;;7.35;4.03;;;;;;;16.17;100.00;99320.50;6309075;22;20057;-78
2022/09/16 09:27:55;;;;;;;4.82;4.10;;;;;;;16.14;100.00;99313.84;6336974;22;20349;-78
2022/09/16 09:30:24;;;;;;;6.63;3.97;;;;;;;16.04;100.00;99306.09;6337102;22;20017;-78
2022/09/16 09:33:01;;;;;;;6.05;4.07;;;;;;;16.10;100.00;99312.50;6336861;22;20006;-78
2022/09/16 09:35:39;;;;;;;8.77;4.40;;;;;;;16.18;100.00;99302.41;6336649;22;20015;-78
2022/09/16 09:38:29;;;;;;;6.53;4.13;;;;;;;16.14;100.00;99311.03;6337263;22;20122;-78
2022/09/16 09:40:59;;;;;;;5.97;4.22;;;;;;;16.19;100.00;99304.72;6309236;22;20015;-78
2022/09/16 09:44:14;;;;;;;6.22;3.88;;;;;;;16.32;100.00;99304.34;6337029;22;20011;-78
2022/09/16 09:46:44;;;;;;;7.03;3.55;;;;;;;16.39;100.00;99301.13;6298101;22;20451;-78
2022/09/16 09:49:18;;;;;;;5.30;3.85;;;;;;;16.44;100.00;99303.19;6309560;22;20007;-78
2022/09/16 09:51:50;;;;;;;5.22;4.10;;;;;;;16.49;100.00;99299.69;6309379;22;20015;-78
2022/09/16 09:54:24;;;;;;;5.50;4.43;;;;;;;16.51;100.00;99297.16;6308829;22;20011;-78
2022/09/16 09:57:12;;;;;;;8.55;4.00;;;;;;;16.52;100.00;99292.31;6336672;22;20011;-78
2022/09/16 09:59:44;;;;;;;5.30;3.88;;;;;;;16.62;100.00;99291.66;6315195;22;20446;-78
2022/09/16 10:02:18;;;;;;;5.50;4.68;;;;;;;16.48;100.00;99295.34;6310021;22;20010;-78
2022/09/16 10:04:44;;;;;;;5.22;3.80;;;;;;;16.53;100.00;99283.44;6309452;22;20007;-78
2022/09/16 10:07:13;;;;;;;6.82;3.40;;;;;;;16.34;100.00;99285.03;6309699;22;20014;-78
2022/09/16 10:09:47;;;;;;;4.43;3.13;;;;;;;16.26;100.00;99287.50;6308562;22;20011;-78
2022/09/16 10:12:12;;;;;;;7.10;3.38;;;;;;;16.23;100.00;99287.72;6309120;22;20418;-78
2022/09/16 10:14:38;;;;;;;4.63;3.20;;;;;;;16.18;100.00;99277.25;6336247;22;20077;-78
2022/09/16 10:17:13;;;;;;;5.30;3.53;;;;;;;16.06;100.00;99278.38;6336600;22;20015;-77
2022/09/16 10:19:51;;;;;;;5.45;4.00;;;;;;;16.06;100.00;99278.38;6308756;22;20040;-77
2022/09/16 10:22:29;;;;;;;4.63;3.20;;;;;;;16.06;100.00;99281.19;6309809;22;20021;-77
2022/09/16 10:25:02;;;;;;;3.50;2.65;;;;;;;15.92;100.00;99280.03;6308006;22;20089;-77
2022/09/16 10:27:33;;;;;;;5.20;3.40;;;;;;;15.92;100.00;99282.06;6309230;22;20095;-78
2022/09/16 10:30:05;;;;;;;4.82;3.33;;;;;;;15.89;100.00;99281.03;6283290;22;20044;-78
2022/09/16 10:32:33;;;;;;;4.90;3.40;;;;;;;15.89;100.00;99281.03;6336645;22;20470;-77
2022/09/16 10:34:58;;;;;;;4.60;3.08;;;;;;;16.01;100.00;99262.34;6336534;22;20042;-77
2022/09/16 10:37:26;;;;;;;4.22;3.25;;;;;;;16.08;100.00;99267.47;6336262;22;20005;-77
2022/09/16 10:39:54;;;;;;;4.55;3.10;;;;;;;16.15;100.00;99269.84;6335368;22;20313;-77
2022/09/16 10:42:25;;;;;;;4.45;2.63;;;;;;;16.24;100.00;99272.47;6309058;22;20011;-79
2022/09/16 10:44:52;;;;;;;3.67;2.50;;;;;;;16.37;100.00;99269.28;6335980;22;20344;-79
2022/09/16 10:47:24;;;;;;;4.50;2.50;;;;;;;16.42;100.00;99266.53;6336221;22;20071;-78
2022/09/16 10:49:53;;;;;;;4.30;3.20;;;;;;;16.52;100.00;99269.94;6307887;22;20011;-79
2022/09/16 10:52:21;;;;;;;4.25;2.90;;;;;;;16.52;100.00;99259.50;6336110;22;20466;-79
2022/09/16 10:54:47;;;;;;;3.55;2.70;;;;;;;16.66;100.00;99264.22;6307812;22;20002;-79
2022/09/16 10:57:25;;;;;;;5.53;2.90;;;;;;;16.74;100.00;99270.91;6336079;22;20056;-79
2022/09/16 11:00:09;;;;;;;4.60;3.28;;;;;;;16.81;100.00;99263.31;6335717;22;20006;-79
2022/09/16 11:02:54;;;;;;;5.00;3.08;;;;;;;16.62;100.00;99274.88;6308621;22;20085;-79
2022/09/16 11:05:43;;;;;;;5.63;3.30;;;;;;;16.54;100.00;99273.75;6308370;22;20344;-78
2022/09/16 11:08:18;;;;;;;7.72;4.20;;;;;;;16.67;100.00;99276.97;6307899;22;20179;-79
2022/09/16 11:10:54;;;;;;;5.28;3.78;;;;;;;16.60;100.00;99260.63;6307964;22;20060;-78
2022/09/16 11:13:57;;;;;;;5.32;4.47;;;;;;;16.52;100.00;99281.13;6335885;22;20026;-79
2022/09/16 11:16:34;;;;;;;6.05;4.63;;;;;;;16.32;100.00;99267.97;6284557;22;20064;-79
2022/09/16 11:19:15;;;;;;;6.15;4.18;;;;;;;16.20;100.00;99263.53;6335854;22;20025;-79
2022/09/16 11:21:58;;;;;;;7.70;3.80;;;;;;;16.04;100.00;99264.13;6336392;22;20010;-80
2022/09/16 11:24:43;;;;;;;6.18;4.00;;;;;;;16.01;100.00;99253.94;6335236;22;20007;-79
2022/09/16 11:27:29;;;;;;;4.68;3.50;;;;;;;15.96;100.00;99251.84;6308439;22;20011;-79
2022/09/16 11:30:17;;;;;;;5.05;2.78;;;;;;;15.94;100.00;99243.16;6307857;22;20022;-79
2022/09/16 11:33:05;;;;;;;4.40;3.30;;;;;;;15.99;100.00;99253.66;6307866;22;20006;-79
2022/09/16 11:35:38;;;;;;;4.30;3.00;;;;;;;15.99;100.00;99254.41;6308025;22;20019;-79
2022/09/16 11:38:23;;;;;;;5.67;3.30;;;;;;;16.00;100.00;99246.81;6282553;22;20015;-78
2022/09/16 11:40:58;;;;;;;4.15;2.92;;;;;;;16.13;100.00;99258.38;6307488;22;20071;-79